»·PEaware :: N516DM KSBP-KHAF

N516DM :: KSBP-KHAF

FLIGHT INFORMATION

Flight Status: Arrived
Operator: Privately registered:
United States
More flights under this callsign
Pilot: Thomas H. (5912)
Aircraft: BEECH AIRCRAFT DEBONAIR BONANZA
(BE33)
More flights by this aircraft type
Origin: KSBP San Luis Co Regl
United States
Destination: KHAF Half Moon Bay
United States
More flights between these airports :: More routes between these airports
Route: PRB SNS SAPID
File this flight plan on PilotEdge
Remarks:
Altitude:
(Current/Filed)
8,000ft
Speed:
(Current/Filed)
160kts
Departed: 14-Sep-18 07:57 AM
Arrived: 14-Sep-18 09:12 AM
Distance/Time
Traveled:
163nm/1:15
Distance/Time
To Go:
Arrived

Flight Plot

Page will automatically refresh every two minutes.

Flight plan parsing failed; only flown route is shown


Map Options




Map Legend


Flown Route
Filed Route
Departure Airport
Arrival Airport
Navaid (VOR, NDB)
Fix

Horizontal Profiles

Position Reports

Time Latitude Longitude Heading Altitude Ground
Speed
14-Sep-18 07:47 35.234426 -120.632960 304 212ft 0kts
14-Sep-18 07:48 35.234426 -120.632960 304 212ft 0kts
14-Sep-18 07:49 35.234426 -120.632960 304 212ft 0kts
14-Sep-18 07:50 35.234426 -120.632960 304 212ft 0kts
14-Sep-18 07:51 35.234426 -120.632960 304 212ft 0kts
14-Sep-18 07:52 35.234426 -120.632960 304 212ft 0kts
14-Sep-18 07:53 35.234426 -120.632960 304 212ft 0kts
14-Sep-18 07:54 35.234426 -120.632960 304 212ft 0kts
14-Sep-18 07:55 35.234426 -120.632960 304 212ft 0kts
14-Sep-18 07:56 35.234426 -120.632960 304 212ft 0kts
14-Sep-18 07:57 35.233670 -120.632639 127 212ft 11kts
14-Sep-18 07:58 35.233181 -120.632416 210 212ft 0kts
14-Sep-18 07:59 35.238749 -120.643451 302 412ft 91kts
14-Sep-18 08:00 35.253086 -120.672895 300 1318ft 107kts
14-Sep-18 08:01 35.268814 -120.704849 301 2160ft 112kts
14-Sep-18 08:02 35.284739 -120.737237 301 3043ft 109kts
14-Sep-18 08:03 35.308623 -120.750929 359 3933ft 102kts
14-Sep-18 08:04 35.337292 -120.749514 0 4739ft 103kts
14-Sep-18 08:05 35.365151 -120.740914 12 5491ft 105kts
14-Sep-18 08:06 35.393643 -120.730311 10 6198ft 108kts
14-Sep-18 08:07 35.422786 -120.719549 9 6905ft 111kts
14-Sep-18 08:08 35.452949 -120.708452 8 7605ft 115kts
14-Sep-18 08:09 35.485798 -120.696693 9 7979ft 142kts
14-Sep-18 08:10 35.526675 -120.681502 10 7977ft 161kts
14-Sep-18 08:11 35.570603 -120.665044 10 7976ft 167kts
14-Sep-18 08:12 35.615589 -120.648931 10 7976ft 169kts
14-Sep-18 08:13 35.660828 -120.633106 3 7974ft 168kts
14-Sep-18 08:14 35.704829 -120.643027 340 7976ft 161kts
14-Sep-18 08:15 35.748456 -120.655324 340 7976ft 161kts
14-Sep-18 08:16 35.792037 -120.667614 340 7976ft 161kts
14-Sep-18 08:17 35.833590 -120.684396 312 7979ft 152kts
14-Sep-18 08:18 35.865836 -120.718640 312 7976ft 153kts
14-Sep-18 08:19 35.897658 -120.753262 312 7975ft 152kts
14-Sep-18 08:20 35.929446 -120.788036 312 7975ft 152kts
14-Sep-18 08:21 35.961169 -120.822807 312 7975ft 152kts
14-Sep-18 08:22 35.992860 -120.857586 312 7975ft 152kts
14-Sep-18 08:23 36.024631 -120.892501 312 7975ft 152kts
14-Sep-18 08:24 36.056291 -120.927329 312 7975ft 152kts
14-Sep-18 08:25 36.087877 -120.962111 312 7975ft 152kts
14-Sep-18 08:26 36.118901 -120.996331 312 7974ft 151kts
14-Sep-18 08:27 36.150364 -121.031053 313 7974ft 151kts
14-Sep-18 08:28 36.181773 -121.065756 313 7974ft 151kts
14-Sep-18 08:29 36.213197 -121.100511 313 7973ft 151kts
14-Sep-18 08:30 36.244571 -121.135257 313 7973ft 152kts
14-Sep-18 08:31 36.276063 -121.170164 314 7973ft 152kts
14-Sep-18 08:32 36.307692 -121.205266 314 7973ft 152kts
14-Sep-18 08:33 36.339206 -121.240266 314 7973ft 152kts
14-Sep-18 08:34 36.370861 -121.275476 314 7973ft 152kts
14-Sep-18 08:35 36.402404 -121.310603 314 7973ft 152kts
14-Sep-18 08:36 36.433982 -121.345810 314 7973ft 152kts
14-Sep-18 08:37 36.465482 -121.380968 314 7973ft 152kts
14-Sep-18 08:38 36.497035 -121.416228 314 7973ft 152kts
14-Sep-18 08:39 36.528575 -121.451508 314 7973ft 152kts
14-Sep-18 08:40 36.560059 -121.486766 314 7973ft 152kts
14-Sep-18 08:41 36.591640 -121.522182 314 7973ft 152kts
14-Sep-18 08:42 36.623111 -121.557515 314 7972ft 152kts
14-Sep-18 08:43 36.654564 -121.592883 314 7972ft 152kts
14-Sep-18 08:44 36.686423 -121.627767 315 7972ft 152kts
14-Sep-18 08:45 36.720042 -121.664269 316 7445ft 171kts
14-Sep-18 08:46 36.755826 -121.703067 317 6682ft 168kts
14-Sep-18 08:47 36.790541 -121.740802 317 5980ft 164kts
14-Sep-18 08:48 36.824516 -121.778508 316 5278ft 163kts
14-Sep-18 08:49 36.858256 -121.815978 318 4575ft 162kts
14-Sep-18 08:50 36.892504 -121.852334 319 3980ft 158kts
14-Sep-18 08:51 36.924854 -121.887587 318 3973ft 152kts
14-Sep-18 08:52 36.954923 -121.924247 303 3975ft 152kts
14-Sep-18 08:53 36.978451 -121.968223 304 3973ft 152kts
14-Sep-18 08:54 36.998029 -122.004719 304 3974ft 152kts
14-Sep-18 08:55 37.021700 -122.048847 304 3964ft 152kts
14-Sep-18 08:56 37.049232 -122.100231 304 3964ft 152kts
14-Sep-18 08:57 37.068894 -122.136969 304 3964ft 152kts
14-Sep-18 08:58 37.096388 -122.188394 304 3967ft 152kts
14-Sep-18 08:59 37.115656 -122.224448 303 3972ft 151kts
14-Sep-18 09:00 37.139038 -122.268290 303 3976ft 151kts
14-Sep-18 09:01 37.162282 -122.311934 303 3981ft 150kts
14-Sep-18 09:02 37.185444 -122.355483 302 3986ft 150kts
14-Sep-18 09:03 37.208503 -122.398896 302 3990ft 149kts
14-Sep-18 09:04 37.231530 -122.442355 302 3991ft 149kts
14-Sep-18 09:05 37.254507 -122.485729 302 3991ft 148kts
14-Sep-18 09:06 37.288230 -122.505903 23 3525ft 162kts
14-Sep-18 09:07 37.317306 -122.466875 43 3490ft 147kts
14-Sep-18 09:08 37.352409 -122.444396 0 3056ft 155kts
14-Sep-18 09:09 37.396178 -122.443837 358 2359ft 159kts
14-Sep-18 09:10 37.438756 -122.445948 334 1971ft 140kts
14-Sep-18 09:11 37.468297 -122.465800 329 1193ft 101kts
14-Sep-18 09:12 37.491496 -122.481158 335 566ft 91kts
14-Sep-18 09:13 37.509631 -122.496714 316 53ft 68kts
14-Sep-18 09:14 37.518257 -122.506540 323 67ft 18kts
14-Sep-18 09:15 37.518822 -122.506403 40 67ft 0kts
14-Sep-18 09:16 37.517740 -122.503610 138 59ft 27kts
14-Sep-18 09:17 37.513948 -122.496105 71 43ft 7kts

Navigation Log

Ident Type
Flight plan parsing failed, navigation log unavailable